createdAt,value
2018-11-06T00:01:11.731Z,37.70
2018-11-06T00:03:44.731Z,37.20
2018-11-06T00:06:12.728Z,36.77
2018-11-06T00:08:40.516Z,36.03
2018-11-06T00:11:08.884Z,35.50
2018-11-06T00:13:36.283Z,36.03
2018-11-06T00:16:03.744Z,35.30
2018-11-06T00:18:31.182Z,35.48
2018-11-06T00:20:58.626Z,35.88
2018-11-06T00:23:26.164Z,35.30
2018-11-06T00:25:54.076Z,34.70
2018-11-06T00:28:22.059Z,35.10
2018-11-06T00:30:49.697Z,35.35
2018-11-06T00:33:17.012Z,34.03
2018-11-06T00:35:44.694Z,35.33
2018-11-06T00:38:12.077Z,35.80
2018-11-06T00:40:39.697Z,35.28
2018-11-06T00:43:07.419Z,35.70
2018-11-06T00:45:35.424Z,36.00
2018-11-06T00:48:03.088Z,34.95
2018-11-06T00:50:30.497Z,35.25
2018-11-06T00:52:58.205Z,35.00
2018-11-06T00:55:25.896Z,33.73
2018-11-06T00:57:53.460Z,34.70
2018-11-06T01:00:21.061Z,34.60
2018-11-06T01:02:48.905Z,34.43
2018-11-06T01:05:18.081Z,34.05
2018-11-06T01:07:48.077Z,34.30
2018-11-06T01:10:15.830Z,33.35
2018-11-06T01:12:43.400Z,33.43
2018-11-06T01:15:12.486Z,33.20
2018-11-06T01:17:40.286Z,33.65
2018-11-06T01:20:08.760Z,33.30
2018-11-06T01:22:36.246Z,33.65
2018-11-06T01:25:03.926Z,34.58
2018-11-06T01:27:31.626Z,33.45
2018-11-06T01:29:59.592Z,34.08
2018-11-06T01:32:27.561Z,34.63
2018-11-06T01:34:54.934Z,33.10
2018-11-06T01:37:22.313Z,33.13
2018-11-06T01:39:50.161Z,33.20
2018-11-06T01:42:17.781Z,33.40
2018-11-06T01:44:45.665Z,33.10
2018-11-06T01:47:13.759Z,32.73
2018-11-06T01:49:41.241Z,32.60
2018-11-06T01:52:08.657Z,32.48
2018-11-06T01:54:36.311Z,31.30
2018-11-06T01:57:04.085Z,33.25
2018-11-06T01:59:31.525Z,32.40
2018-11-06T02:01:59.163Z,32.40
2018-11-06T02:04:26.512Z,32.43
2018-11-06T02:06:53.921Z,32.20
2018-11-06T02:09:21.573Z,32.10
2018-11-06T02:11:48.948Z,32.40
2018-11-06T02:14:16.329Z,30.45
2018-11-06T02:16:44.624Z,31.50
2018-11-06T02:19:12.342Z,31.10
2018-11-06T02:21:39.908Z,31.82
2018-11-06T02:24:07.554Z,30.52
2018-11-06T02:26:35.323Z,31.25
2018-11-06T02:29:02.977Z,31.70
2018-11-06T02:31:30.288Z,31.43
2018-11-06T02:33:57.653Z,31.25
2018-11-06T02:36:25.117Z,31.20
2018-11-06T02:38:53.425Z,32.10
2018-11-06T02:41:21.186Z,32.00
2018-11-06T02:43:49.281Z,32.23
2018-11-06T02:46:16.916Z,32.00
2018-11-06T02:48:44.298Z,31.48
2018-11-06T02:51:12.042Z,31.73
2018-11-06T02:53:39.429Z,31.87
2018-11-06T02:56:07.215Z,31.33
2018-11-06T02:58:34.931Z,31.68
2018-11-06T03:01:03.006Z,31.30
2018-11-06T03:03:35.956Z,32.00
2018-11-06T03:06:03.329Z,31.77
2018-11-06T03:08:31.082Z,31.77
2018-11-06T03:10:58.774Z,32.70
2018-11-06T03:13:26.108Z,31.65
2018-11-06T03:15:53.700Z,32.13
2018-11-06T03:18:21.357Z,31.30
2018-11-06T03:20:49.522Z,30.55
2018-11-06T03:23:16.909Z,31.68
2018-11-06T03:25:44.244Z,32.08
2018-11-06T03:28:11.587Z,31.30
2018-11-06T03:30:39.221Z,30.88
2018-11-06T03:33:06.605Z,31.80
2018-11-06T03:35:34.206Z,32.73
2018-11-06T03:38:01.794Z,31.23
2018-11-06T03:40:29.803Z,31.60
2018-11-06T03:42:57.216Z,32.73
2018-11-06T03:45:24.929Z,31.67
2018-11-06T03:47:52.584Z,31.93
2018-11-06T03:50:20.156Z,31.62
2018-11-06T03:52:47.545Z,32.35
2018-11-06T03:55:15.188Z,32.20
2018-11-06T03:57:42.582Z,32.50
2018-11-06T04:00:11.750Z,33.30
2018-11-06T04:02:39.780Z,32.10
2018-11-06T04:05:07.665Z,32.37
2018-11-06T04:07:35.044Z,32.88
2018-11-06T04:10:02.405Z,33.28
2018-11-06T04:12:30.416Z,32.90
2018-11-06T04:14:58.098Z,32.90
2018-11-06T04:17:25.493Z,32.83
2018-11-06T04:19:52.913Z,32.45
2018-11-06T04:22:21.393Z,33.98
2018-11-06T04:24:49.472Z,33.65
2018-11-06T04:27:16.830Z,32.93
2018-11-06T04:29:44.206Z,33.63
2018-11-06T04:32:11.666Z,32.58
2018-11-06T04:34:39.038Z,34.73
2018-11-06T04:37:06.754Z,35.58
2018-11-06T04:39:34.126Z,34.33
2018-11-06T04:42:01.533Z,33.42
2018-11-06T04:44:28.910Z,33.80
2018-11-06T04:46:56.555Z,33.33
2018-11-06T04:49:24.545Z,33.83
2018-11-06T04:51:52.314Z,33.45
2018-11-06T04:54:19.703Z,34.58
2018-11-06T04:56:47.438Z,33.53
2018-11-06T04:59:14.835Z,33.70
2018-11-06T05:01:42.187Z,35.38
2018-11-06T05:04:09.545Z,34.53
2018-11-06T05:06:36.940Z,34.23
2018-11-06T05:09:06.031Z,34.92
2018-11-06T05:11:33.473Z,35.30
2018-11-06T05:14:01.521Z,35.50
2018-11-06T05:16:29.144Z,36.73
2018-11-06T05:18:56.506Z,35.63
2018-11-06T05:21:23.919Z,35.68
2018-11-06T05:23:51.281Z,37.42
2018-11-06T05:26:18.638Z,35.68
2018-11-06T05:28:46.332Z,35.63
2018-11-06T05:31:13.709Z,36.90
2018-11-06T05:33:41.556Z,35.73
2018-11-06T05:36:09.537Z,35.68
2018-11-06T05:38:37.286Z,35.60
2018-11-06T05:41:06.260Z,36.53
2018-11-06T05:43:34.053Z,35.60
2018-11-06T05:46:01.864Z,35.92
2018-11-06T05:48:29.281Z,34.90
2018-11-06T05:50:56.676Z,35.88
2018-11-06T05:53:24.173Z,36.48
2018-11-06T05:55:51.817Z,36.48
2018-11-06T05:58:19.513Z,36.80
2018-11-06T06:00:47.586Z,37.35
2018-11-06T06:03:15.209Z,36.42
2018-11-06T06:05:42.902Z,35.98
2018-11-06T06:08:11.366Z,37.83
2018-11-06T06:10:38.975Z,36.83
2018-11-06T06:13:07.429Z,36.90
2018-11-06T06:15:34.918Z,37.20
2018-11-06T06:18:02.318Z,36.10
2018-11-06T06:20:29.746Z,37.33
2018-11-06T06:22:57.779Z,36.83
2018-11-06T06:25:25.100Z,37.60
2018-11-06T06:27:53.102Z,37.75
2018-11-06T06:30:20.497Z,36.48
2018-11-06T06:32:48.165Z,37.10
2018-11-06T06:35:15.727Z,37.73
2018-11-06T06:37:43.957Z,36.40
2018-11-06T06:40:15.294Z,36.00
2018-11-06T06:42:43.306Z,36.80
2018-11-06T06:45:12.211Z,37.45
2018-11-06T06:47:39.969Z,36.15
2018-11-06T06:50:08.696Z,37.03
2018-11-06T06:52:36.607Z,38.10
2018-11-06T06:55:04.404Z,37.17
2018-11-06T06:57:32.580Z,36.80
2018-11-06T07:00:00.270Z,37.23
2018-11-06T07:02:28.024Z,37.28
2018-11-06T07:04:55.724Z,37.85
2018-11-06T07:07:23.077Z,39.05
2018-11-06T07:09:50.505Z,38.17
2018-11-06T07:12:18.191Z,37.05
2018-11-06T07:14:45.590Z,36.88
2018-11-06T07:17:13.317Z,36.77
2018-11-06T07:19:40.991Z,34.67
2018-11-06T07:22:08.745Z,33.07
2018-11-06T07:24:36.506Z,33.30
2018-11-06T07:27:04.974Z,31.95
2018-11-06T07:29:32.953Z,31.00
2018-11-06T07:32:00.401Z,32.95
2018-11-06T07:34:28.227Z,31.50
2018-11-06T07:36:55.871Z,30.80
2018-11-06T07:39:23.362Z,30.20
2018-11-06T07:41:50.801Z,29.92
2018-11-06T07:44:18.724Z,28.57
2018-11-06T07:46:46.520Z,29.40
2018-11-06T07:49:13.909Z,29.25
2018-11-06T07:51:41.614Z,29.25
2018-11-06T07:54:09.355Z,29.67
2018-11-06T07:56:36.716Z,28.00
2018-11-06T07:59:04.284Z,28.25
2018-11-06T08:01:31.662Z,28.87
2018-11-06T08:03:59.124Z,28.52
2018-11-06T08:06:26.820Z,26.93
2018-11-06T08:08:54.427Z,26.80
2018-11-06T08:11:21.833Z,27.80
2018-11-06T08:13:49.553Z,27.10
2018-11-06T08:16:17.165Z,27.30
2018-11-06T08:18:44.505Z,27.35
2018-11-06T08:21:11.853Z,28.00
2018-11-06T08:23:39.258Z,28.38
2018-11-06T08:26:06.670Z,28.07
2018-11-06T08:28:34.554Z,27.32
2018-11-06T08:31:02.073Z,28.12
2018-11-06T08:33:29.889Z,28.20
2018-11-06T08:35:58.006Z,28.70
2018-11-06T08:38:25.787Z,27.90
2018-11-06T08:40:53.551Z,28.90
2018-11-06T08:43:21.263Z,29.60
2018-11-06T08:45:48.623Z,28.42
2018-11-06T08:48:16.552Z,28.77
2018-11-06T08:50:43.934Z,26.40
2018-11-06T08:53:11.644Z,27.05
2018-11-06T08:55:39.061Z,29.87
2018-11-06T08:58:06.758Z,26.23
2018-11-06T09:00:34.112Z,26.37
2018-11-06T09:03:01.448Z,26.40
2018-11-06T09:05:28.796Z,26.23
2018-11-06T09:07:56.182Z,25.57
2018-11-06T09:10:23.614Z,26.87
2018-11-06T09:12:51.046Z,27.45
2018-11-06T09:15:18.681Z,26.68
2018-11-06T09:17:46.419Z,27.03
2018-11-06T09:20:14.957Z,26.50
2018-11-06T09:22:42.629Z,27.22
2018-11-06T09:25:11.757Z,27.10
2018-11-06T09:27:39.517Z,27.57
2018-11-06T09:30:08.269Z,27.80
2018-11-06T09:32:35.645Z,28.33
2018-11-06T09:35:03.049Z,27.42
2018-11-06T09:37:30.688Z,28.30
2018-11-06T09:39:58.038Z,27.80
2018-11-06T09:42:25.778Z,29.53
2018-11-06T09:44:53.199Z,28.30
2018-11-06T09:47:21.103Z,28.73
2018-11-06T09:49:48.498Z,27.50
2018-11-06T09:52:15.841Z,27.65
2018-11-06T09:54:43.577Z,27.95
2018-11-06T09:57:11.007Z,28.17
2018-11-06T09:59:38.430Z,28.02
2018-11-06T10:02:05.893Z,30.27
2018-11-06T10:04:33.294Z,29.03
2018-11-06T10:07:01.401Z,28.43
2018-11-06T10:09:28.582Z,28.55
2018-11-06T10:11:55.976Z,27.93
2018-11-06T10:14:23.385Z,27.90
2018-11-06T10:16:51.050Z,27.20
2018-11-06T10:19:18.388Z,27.15
2018-11-06T10:21:46.446Z,27.20
2018-11-06T10:24:14.124Z,26.37
2018-11-06T10:26:41.489Z,27.10
2018-11-06T10:29:08.835Z,26.33
2018-11-06T10:31:37.318Z,27.17
2018-11-06T10:34:05.392Z,26.80
2018-11-06T10:36:33.144Z,26.70
2018-11-06T10:39:00.749Z,27.48
2018-11-06T10:41:28.421Z,26.33
2018-11-06T10:43:56.340Z,26.42
2018-11-06T10:46:24.413Z,26.90
2018-11-06T10:48:51.841Z,26.60
2018-11-06T10:51:19.257Z,26.20
2018-11-06T10:53:46.953Z,25.10
2018-11-06T10:56:14.663Z,25.80
2018-11-06T10:58:42.050Z,27.33
2018-11-06T11:01:14.853Z,26.23
2018-11-06T11:04:21.094Z,26.65
2018-11-06T11:06:48.555Z,26.33
2018-11-06T11:09:16.006Z,25.43
2018-11-06T11:11:43.640Z,29.15
2018-11-06T11:14:11.383Z,27.90
2018-11-06T11:16:39.034Z,27.58
2018-11-06T11:19:06.510Z,27.42
2018-11-06T11:21:33.921Z,28.50
2018-11-06T11:24:01.311Z,27.40
2018-11-06T11:26:28.898Z,27.02
2018-11-06T11:28:56.254Z,26.40
2018-11-06T11:31:23.661Z,24.70
2018-11-06T11:33:51.036Z,24.52
2018-11-06T11:36:18.428Z,24.45
2018-11-06T11:38:46.881Z,23.47
2018-11-06T11:41:14.561Z,22.23
2018-11-06T11:43:42.197Z,24.35
2018-11-06T11:46:09.895Z,24.10
2018-11-06T11:48:37.294Z,26.00
2018-11-06T11:51:04.682Z,22.87
2018-11-06T11:53:32.443Z,22.13
2018-11-06T11:56:00.526Z,22.90
2018-11-06T11:58:28.401Z,22.17
2018-11-06T12:00:55.776Z,22.73
2018-11-06T12:03:23.426Z,22.55
2018-11-06T12:05:51.098Z,22.55
2018-11-06T12:08:18.465Z,20.20
2018-11-06T12:10:46.673Z,21.50
2018-11-06T12:13:14.036Z,21.27
2018-11-06T12:15:41.677Z,24.10
2018-11-06T12:18:09.114Z,21.10
2018-11-06T12:20:36.570Z,23.87
2018-11-06T12:23:03.931Z,20.65
2018-11-06T12:25:31.457Z,23.15
2018-11-06T12:27:59.451Z,19.92
2018-11-06T12:30:27.097Z,20.35
2018-11-06T12:32:54.501Z,20.30
2018-11-06T12:35:22.165Z,20.10
2018-11-06T12:37:49.484Z,21.55
2018-11-06T12:40:17.136Z,24.55
2018-11-06T12:42:45.668Z,22.00
2018-11-06T12:45:14.913Z,22.07
2018-11-06T12:47:42.707Z,22.15
2018-11-06T12:50:10.892Z,24.72
2018-11-06T12:52:38.549Z,23.05
2018-11-06T12:55:06.413Z,23.00
2018-11-06T12:57:33.776Z,23.13
2018-11-06T13:00:01.165Z,23.62
2018-11-06T13:02:28.548Z,23.30
2018-11-06T13:04:55.937Z,22.85
2018-11-06T13:07:23.398Z,23.90
2018-11-06T13:09:50.813Z,26.05
2018-11-06T13:12:18.333Z,23.70
2018-11-06T13:14:46.179Z,25.20
2018-11-06T13:17:13.656Z,23.30
2018-11-06T13:19:41.271Z,23.60
2018-11-06T13:22:08.945Z,24.35
2018-11-06T13:24:36.768Z,24.85
2018-11-06T13:27:04.507Z,25.90
2018-11-06T13:34:30.120Z,48.83
2018-11-06T13:36:57.530Z,31.10
2018-11-06T13:39:25.237Z,25.33
2018-11-06T13:41:53.276Z,25.70
2018-11-06T13:44:21.075Z,25.12
2018-11-06T13:46:48.528Z,25.20
2018-11-06T13:49:16.206Z,25.75
2018-11-06T13:51:43.558Z,25.40
2018-11-06T13:54:11.214Z,24.45
2018-11-06T13:56:38.715Z,26.23
2018-11-06T13:59:06.702Z,24.98
2018-11-06T14:01:34.384Z,24.92
2018-11-06T14:04:02.417Z,25.23
2018-11-06T14:06:30.070Z,27.00
2018-11-06T14:08:58.209Z,29.90
2018-11-06T14:11:25.849Z,25.70
2018-11-06T14:13:53.265Z,30.30
2018-11-06T14:16:20.615Z,32.65
2018-11-06T14:18:47.952Z,27.90
2018-11-06T14:21:16.187Z,25.52
2018-11-06T14:23:43.834Z,25.02
2018-11-06T14:26:11.234Z,25.25
2018-11-06T14:28:59.890Z,24.45
2018-11-06T14:31:27.545Z,25.50
2018-11-06T14:33:54.930Z,25.30
2018-11-06T14:36:23.356Z,30.77
2018-11-06T14:38:51.045Z,27.07
2018-11-06T14:41:18.958Z,25.77
2018-11-06T14:43:46.609Z,25.68
2018-11-06T14:46:13.970Z,24.90
2018-11-06T14:48:41.569Z,26.37
2018-11-06T14:51:08.910Z,26.30
2018-11-06T14:53:36.625Z,27.22
2018-11-06T14:56:04.130Z,39.42
2018-11-06T14:58:31.728Z,41.20
2018-11-06T15:00:59.117Z,38.60
2018-11-06T15:03:26.493Z,28.10
2018-11-06T15:05:54.180Z,25.05
2018-11-06T15:08:21.878Z,27.10
2018-11-06T15:10:49.332Z,29.30
2018-11-06T15:13:16.720Z,31.70
2018-11-06T15:15:44.315Z,39.23
2018-11-06T15:18:12.038Z,46.58
2018-11-06T15:20:39.829Z,30.25
2018-11-06T15:23:07.544Z,28.83
2018-11-06T15:25:34.972Z,30.88
2018-11-06T15:28:02.441Z,29.00
2018-11-06T15:30:30.078Z,24.27
2018-11-06T15:32:57.467Z,24.37
2018-11-06T15:35:24.842Z,25.67
2018-11-06T15:37:52.235Z,25.40
2018-11-06T15:40:20.482Z,25.00
2018-11-06T15:42:48.182Z,24.95
2018-11-06T15:45:17.027Z,26.00
2018-11-06T15:47:45.246Z,26.50
2018-11-06T15:50:13.665Z,26.47
2018-11-06T15:52:41.508Z,25.72
2018-11-06T15:55:08.921Z,26.20
2018-11-06T15:57:37.320Z,30.57
2018-11-06T16:00:07.456Z,27.58
2018-11-06T16:02:34.874Z,26.95
2018-11-06T16:05:02.216Z,26.65
2018-11-06T16:07:29.647Z,26.65
2018-11-06T16:09:57.043Z,24.50
2018-11-06T16:12:24.763Z,26.10
2018-11-06T16:14:52.604Z,26.60
2018-11-06T16:17:21.009Z,26.97
2018-11-06T16:19:53.133Z,26.50
2018-11-06T16:22:20.563Z,27.20
2018-11-06T16:24:47.982Z,27.73
2018-11-06T16:27:15.885Z,27.87
2018-11-06T16:29:43.718Z,27.80
2018-11-06T16:32:11.298Z,29.55
2018-11-06T16:34:38.965Z,29.17
2018-11-06T16:37:06.350Z,34.20
2018-11-06T16:39:34.094Z,40.10
2018-11-06T16:42:01.659Z,33.10
2018-11-06T16:44:29.637Z,32.93
2018-11-06T16:46:57.585Z,31.93
2018-11-06T16:49:25.514Z,30.27
2018-11-06T16:51:52.873Z,31.35
2018-11-06T16:54:20.462Z,31.57
2018-11-06T16:56:47.900Z,32.05
2018-11-06T16:59:15.262Z,32.70
2018-11-06T17:01:42.718Z,31.62
2018-11-06T17:04:10.163Z,30.97
2018-11-06T17:06:43.588Z,28.90
2018-11-06T17:09:11.196Z,29.80
2018-11-06T17:11:38.896Z,28.92
2018-11-06T17:14:06.427Z,28.87
2018-11-06T17:16:34.248Z,28.73
2018-11-06T17:19:01.885Z,28.20
2018-11-06T17:21:29.277Z,27.02
2018-11-06T17:23:56.958Z,28.10
2018-11-06T17:26:24.893Z,29.12
2018-11-06T17:28:53.863Z,32.17
2018-11-06T17:31:21.548Z,32.65
2018-11-06T17:33:48.913Z,34.63
2018-11-06T17:36:16.673Z,32.45
2018-11-06T17:38:44.369Z,30.80
2018-11-06T17:41:11.717Z,29.90
2018-11-06T17:43:40.278Z,30.00
2018-11-06T17:46:07.666Z,32.15
2018-11-06T17:48:35.408Z,32.10
2018-11-06T17:51:03.270Z,33.83
2018-11-06T17:53:30.674Z,33.55
2018-11-06T17:55:58.061Z,32.10
2018-11-06T17:58:26.041Z,31.42
2018-11-06T18:00:53.446Z,32.10
2018-11-06T18:03:21.140Z,33.70
2018-11-06T18:05:48.576Z,31.73
2018-11-06T18:08:16.208Z,30.40
2018-11-06T18:10:43.674Z,30.27
2018-11-06T18:13:11.086Z,31.48
2018-11-06T18:15:38.522Z,31.10
2018-11-06T18:18:06.550Z,31.12
2018-11-06T18:20:33.898Z,31.25
2018-11-06T18:23:01.409Z,31.30
2018-11-06T18:25:29.290Z,31.70
2018-11-06T18:27:56.574Z,31.52
2018-11-06T18:30:23.996Z,30.37
2018-11-06T18:32:51.341Z,31.75
2018-11-06T18:35:19.136Z,64.77
2018-11-06T18:37:46.556Z,33.58
2018-11-06T18:40:15.881Z,31.27
2018-11-06T18:42:43.968Z,32.78
2018-11-06T18:45:11.721Z,32.00
2018-11-06T18:47:39.416Z,32.65
2018-11-06T18:50:07.768Z,31.17
2018-11-06T18:52:35.424Z,32.00
2018-11-06T18:55:02.899Z,31.62
2018-11-06T18:57:30.295Z,31.35
2018-11-06T18:59:57.747Z,32.35
2018-11-06T19:02:25.133Z,31.93
2018-11-06T19:04:52.526Z,31.63
2018-11-06T19:07:20.086Z,32.20
2018-11-06T19:09:47.540Z,32.53
2018-11-06T19:12:15.186Z,31.45
2018-11-06T19:14:43.126Z,31.97
2018-11-06T19:17:10.469Z,32.00
2018-11-06T19:19:38.152Z,31.90
2018-11-06T19:22:05.535Z,34.03
2018-11-06T19:24:33.139Z,34.40
2018-11-06T19:27:01.182Z,32.10
2018-11-06T19:29:28.846Z,33.27
2018-11-06T19:31:56.405Z,31.30
2018-11-06T19:34:23.802Z,31.65
2018-11-06T19:36:51.489Z,31.40
2018-11-06T19:39:19.499Z,31.12
2018-11-06T19:41:47.258Z,30.85
2018-11-06T19:44:14.920Z,32.35
2018-11-06T19:46:42.553Z,31.17
2018-11-06T19:49:10.069Z,30.50
2018-11-06T19:51:37.413Z,31.27
2018-11-06T19:54:06.029Z,30.53
2018-11-06T19:56:33.390Z,30.57
2018-11-06T19:59:00.831Z,30.62
2018-11-06T20:01:28.534Z,30.08
2018-11-06T20:03:56.516Z,31.90
2018-11-06T20:06:24.501Z,32.17
2018-11-06T20:08:52.157Z,31.33
2018-11-06T20:11:19.722Z,31.07
2018-11-06T20:13:47.081Z,30.37
2018-11-06T20:16:14.832Z,30.60
2018-11-06T20:18:42.180Z,30.80
2018-11-06T20:21:09.839Z,31.17
2018-11-06T20:23:37.333Z,30.27
2018-11-06T20:26:05.233Z,31.27
2018-11-06T20:28:32.845Z,30.48
2018-11-06T20:31:00.269Z,30.10
2018-11-06T20:33:27.710Z,30.97
2018-11-06T20:35:55.096Z,31.48
2018-11-06T20:38:22.864Z,33.90
2018-11-06T20:40:50.535Z,30.05
2018-11-06T20:43:17.962Z,30.17
2018-11-06T20:45:45.318Z,31.65
2018-11-06T20:48:13.322Z,31.65
2018-11-06T20:50:40.900Z,31.45
2018-11-06T20:53:08.557Z,31.10
2018-11-06T20:55:36.011Z,30.68
2018-11-06T20:58:03.389Z,30.63
2018-11-06T21:00:31.129Z,31.07
2018-11-06T21:02:59.734Z,29.48
2018-11-06T21:05:27.722Z,32.00
2018-11-06T21:07:55.402Z,31.80
2018-11-06T21:10:24.539Z,31.57
2018-11-06T21:12:51.950Z,31.93
2018-11-06T21:15:20.553Z,31.37
2018-11-06T21:17:48.008Z,35.23
2018-11-06T21:20:15.924Z,34.58
2018-11-06T21:22:43.403Z,42.20
2018-11-06T21:27:25.686Z,35.10
2018-11-06T21:29:53.413Z,40.45
2018-11-06T21:32:20.807Z,35.10
2018-11-06T21:34:48.201Z,34.35
2018-11-06T21:37:15.847Z,41.00
2018-11-06T21:39:43.515Z,40.88
2018-11-06T21:42:11.028Z,38.88
2018-11-06T21:44:38.362Z,34.78
2018-11-06T21:47:05.802Z,35.90
2018-11-06T21:49:33.721Z,44.95
2018-11-06T21:52:01.398Z,40.25
2018-11-06T21:54:28.773Z,34.40
2018-11-06T21:56:56.476Z,35.15
2018-11-06T21:59:24.171Z,34.85
2018-11-06T22:01:51.914Z,35.00
2018-11-06T22:04:19.700Z,32.78
2018-11-06T22:06:47.368Z,32.03
2018-11-06T22:09:15.329Z,32.93
2018-11-06T22:11:42.715Z,36.88
2018-11-06T22:14:10.495Z,37.23
2018-11-06T22:16:38.600Z,50.05
2018-11-06T22:19:06.366Z,38.88
2018-11-06T22:21:33.799Z,34.60
2018-11-06T22:24:01.137Z,32.33
2018-11-06T22:26:28.825Z,32.30
2018-11-06T22:28:56.698Z,31.87
2018-11-06T22:31:24.443Z,32.05
2018-11-06T22:33:52.165Z,31.35
2018-11-06T22:36:19.586Z,31.55
2018-11-06T22:38:47.289Z,31.97
2018-11-06T22:41:14.675Z,31.93
2018-11-06T22:43:42.413Z,33.23
2018-11-06T22:46:09.858Z,32.28
2018-11-06T22:48:37.212Z,31.50
2018-11-06T22:51:04.693Z,32.00
2018-11-06T22:53:32.101Z,32.15
2018-11-06T22:55:59.522Z,31.52
2018-11-06T22:58:27.214Z,32.40
2018-11-06T23:01:00.065Z,31.00
2018-11-06T23:03:27.402Z,31.52
2018-11-06T23:05:55.154Z,31.70
2018-11-06T23:08:25.059Z,32.30
2018-11-06T23:10:52.656Z,31.95
2018-11-06T23:13:20.282Z,32.28
2018-11-06T23:15:48.359Z,32.80
2018-11-06T23:18:15.952Z,33.02
2018-11-06T23:20:44.000Z,34.00
2018-11-06T23:23:11.404Z,32.73
2018-11-06T23:25:39.014Z,32.47
2018-11-06T23:28:06.346Z,30.95
2018-11-06T23:30:34.051Z,32.35
2018-11-06T23:33:01.960Z,32.40
2018-11-06T23:35:29.644Z,34.00
2018-11-06T23:37:57.297Z,33.18
2018-11-06T23:40:24.720Z,33.83
2018-11-06T23:42:52.157Z,34.25
2018-11-06T23:45:19.883Z,34.43
2018-11-06T23:47:47.306Z,34.05
2018-11-06T23:50:15.034Z,33.33
2018-11-06T23:52:42.961Z,33.45
2018-11-06T23:55:10.865Z,32.78
2018-11-06T23:57:38.188Z,33.80
